sensor_id;sensor_type;location;lat;lon;timestamp;pressure;altitude;pressure_sealevel;temperature;humidity
26178;BME280;13924;47.670;10.310;2023-11-19T00:00:37;94220;;;7.4;100.0
26178;BME280;13924;47.670;10.310;2023-11-19T00:15:37;94180;;;7.6;100.0
26178;BME280;13924;47.670;10.310;2023-11-19T00:30:38;94140;;;8.0;100.0
26178;BME280;13924;47.670;10.310;2023-11-19T00:45:38;94140;;;8.0;100.0
26178;BME280;13924;47.670;10.310;2023-11-19T01:00:39;94140;;;8.0;100.0
26178;BME280;13924;47.670;10.310;2023-11-19T01:15:40;94120;;;8.2;100.0
26178;BME280;13924;47.670;10.310;2023-11-19T01:30:41;94130;;;8.2;100.0
26178;BME280;13924;47.670;10.310;2023-11-19T01:45:41;94110;;;8.3;100.0
26178;BME280;13924;47.670;10.310;2023-11-19T02:00:44;94120;;;8.8;100.0
26178;BME280;13924;47.670;10.310;2023-11-19T02:01:34;94130;;;8.7;100.0
26178;BME280;13924;47.670;10.310;2023-11-19T02:15:43;94120;;;9.1;100.0
26178;BME280;13924;47.670;10.310;2023-11-19T02:30:43;94120;;;9.0;100.0
26178;BME280;13924;47.670;10.310;2023-11-19T02:45:45;94170;;;9.3;100.0
26178;BME280;13924;47.670;10.310;2023-11-19T03:00:45;94170;;;9.1;100.0
26178;BME280;13924;47.670;10.310;2023-11-19T03:15:46;94130;;;9.1;100.0
26178;BME280;13924;47.670;10.310;2023-11-19T03:30:47;94150;;;9.2;100.0
26178;BME280;13924;47.670;10.310;2023-11-19T03:45:47;94130;;;9.1;100.0
26178;BME280;13924;47.670;10.310;2023-11-19T04:00:49;94120;;;9.1;100.0
26178;BME280;13924;47.670;10.310;2023-11-19T04:15:50;94130;;;9.2;100.0
26178;BME280;13924;47.670;10.310;2023-11-19T04:30:50;94170;;;9.1;100.0
26178;BME280;13924;47.670;10.310;2023-11-19T04:45:57;94170;;;9.0;100.0
26178;BME280;13924;47.670;10.310;2023-11-19T05:00:52;94200;;;9.1;100.0
26178;BME280;13924;47.670;10.310;2023-11-19T05:15:53;94180;;;9.1;100.0
26178;BME280;13924;47.670;10.310;2023-11-19T05:30:54;94180;;;9.1;100.0
26178;BME280;13924;47.670;10.310;2023-11-19T05:45:54;94240;;;9.2;100.0
26178;BME280;13924;47.670;10.310;2023-11-19T06:00:56;94230;;;9.3;100.0
26178;BME280;13924;47.670;10.310;2023-11-19T06:15:56;94230;;;9.2;100.0
26178;BME280;13924;47.670;10.310;2023-11-19T06:30:57;94250;;;9.4;100.0
26178;BME280;13924;47.670;10.310;2023-11-19T06:45:21;94250;;;9.5;100.0
26178;BME280;13924;47.670;10.310;2023-11-19T07:00:21;94260;;;9.7;100.0
26178;BME280;13924;47.670;10.310;2023-11-19T07:15:20;94260;;;9.5;100.0
26178;BME280;13924;47.670;10.310;2023-11-19T07:30:22;94270;;;9.5;100.0
26178;BME280;13924;47.670;10.310;2023-11-19T07:45:21;94270;;;9.6;100.0
26178;BME280;13924;47.670;10.310;2023-11-19T08:00:22;94240;;;9.7;100.0
26178;BME280;13924;47.670;10.310;2023-11-19T08:15:22;94290;;;9.9;100.0
26178;BME280;13924;47.670;10.310;2023-11-19T08:30:22;94280;;;9.7;100.0
26178;BME280;13924;47.670;10.310;2023-11-19T08:45:28;94270;;;9.9;100.0
26178;BME280;13924;47.670;10.310;2023-11-19T09:00:24;94290;;;10.0;100.0
26178;BME280;13924;47.670;10.310;2023-11-19T09:15:25;94260;;;10.1;100.0
26178;BME280;13924;47.670;10.310;2023-11-19T09:30:26;94260;;;10.2;100.0
26178;BME280;13924;47.670;10.310;2023-11-19T09:45:27;94250;;;10.4;100.0
26178;BME280;13924;47.670;10.310;2023-11-19T10:00:30;94250;;;10.4;100.0
26178;BME280;13924;47.670;10.310;2023-11-19T10:15:36;94220;;;10.5;100.0
26178;BME280;13924;47.670;10.310;2023-11-19T10:30:33;94280;;;10.6;100.0
26178;BME280;13924;47.670;10.310;2023-11-19T10:45:32;94270;;;10.5;100.0
26178;BME280;13924;47.670;10.310;2023-11-19T11:00:38;94250;;;10.4;100.0
26178;BME280;13924;47.670;10.310;2023-11-19T11:15:34;94230;;;10.4;100.0
26178;BME280;13924;47.670;10.310;2023-11-19T11:30:46;94230;;;10.4;100.0
26178;BME280;13924;47.670;10.310;2023-11-19T11:45:36;94200;;;10.4;100.0
26178;BME280;13924;47.670;10.310;2023-11-19T12:00:38;94190;;;10.4;100.0
26178;BME280;13924;47.670;10.310;2023-11-19T12:16:07;94170;;;10.6;100.0
26178;BME280;13924;47.670;10.310;2023-11-19T12:30:37;94200;;;10.7;100.0
26178;BME280;13924;47.670;10.310;2023-11-19T12:45:37;94230;;;10.7;100.0
26178;BME280;13924;47.670;10.310;2023-11-19T13:00:37;94200;;;10.7;100.0
26178;BME280;13924;47.670;10.310;2023-11-19T13:15:40;94240;;;10.8;100.0
26178;BME280;13924;47.670;10.310;2023-11-19T13:30:40;94260;;;10.9;100.0
26178;BME280;13924;47.670;10.310;2023-11-19T13:45:40;94250;;;10.9;100.0
26178;BME280;13924;47.670;10.310;2023-11-19T14:00:42;94220;;;10.8;100.0
26178;BME280;13924;47.670;10.310;2023-11-19T14:15:42;94180;;;10.7;100.0
26178;BME280;13924;47.670;10.310;2023-11-19T14:30:43;94130;;;10.7;100.0
26178;BME280;13924;47.670;10.310;2023-11-19T14:45:43;94120;;;10.9;100.0
26178;BME280;13924;47.670;10.310;2023-11-19T15:00:48;94120;;;10.9;100.0
26178;BME280;13924;47.670;10.310;2023-11-19T15:15:45;94300;;;11.2;100.0
26178;BME280;13924;47.670;10.310;2023-11-19T15:30:45;94270;;;11.2;100.0
26178;BME280;13924;47.670;10.310;2023-11-19T15:45:47;94290;;;11.2;100.0
26178;BME280;13924;47.670;10.310;2023-11-19T16:00:48;94200;;;11.2;100.0
26178;BME280;13924;47.670;10.310;2023-11-19T16:15:51;94200;;;11.2;100.0
26178;BME280;13924;47.670;10.310;2023-11-19T16:30:48;94110;;;11.0;100.0
26178;BME280;13924;47.670;10.310;2023-11-19T16:45:50;94160;;;10.8;100.0
26178;BME280;13924;47.670;10.310;2023-11-19T17:00:50;93950;;;10.9;100.0
26178;BME280;13924;47.670;10.310;2023-11-19T17:15:54;93950;;;10.9;100.0
26178;BME280;13924;47.670;10.310;2023-11-19T17:30:53;93770;;;11.0;100.0
26178;BME280;13924;47.670;10.310;2023-11-19T17:45:55;93770;;;11.0;100.0
26178;BME280;13924;47.670;10.310;2023-11-19T23:00:32;93910;;;10.5;100.0
26178;BME280;13924;47.670;10.310;2023-11-19T23:15:35;93890;;;10.4;100.0
26178;BME280;13924;47.670;10.310;2023-11-19T23:30:34;93890;;;10.2;100.0
26178;BME280;13924;47.670;10.310;2023-11-19T23:45:35;93750;;;10.5;100.0
